Indianapolis, Indiana
Traffic Map
Current Weather Conditions
Indianapolis, Indiana
Overcast
Overcast
53°
Feels Like: 53°
Wind Chill: 53° Ceiling: 6000
Heat Index: 53° Visibility: 10mi
Dew Point: 46° Wind: 6mph
Humidity: 77% Direction: 100° (E)
Pressure: 29.79in Gusts: 0mph
Raw Report DataKIND 301154Z 10005KT 10SM SCT045 BKN060 OVC130 12/08 A2979 RMK AO2 LTG DSNT NW SLP086 OCNL LTGCGIC DSNT NW CB DSNT NW MOV NE T01170078 10128 20111 55010
Traffic Incident Summary
Active as of:
Severity:
Category:
InformationThere was an issue retrieving the traffic information for this location. Please try a different location or try again shortly.
Advertisements
Track Severe Weather on mobile